sensor_id;sensor_type;location;lat;lon;timestamp;P1;P2;P0
73517;PMS5003;61766;60.318;25.044;2023-08-06T00:00:18;10;10;
73517;PMS5003;61766;60.318;25.044;2023-08-06T00:02:44;7;6;
73517;PMS5003;61766;60.318;25.044;2023-08-06T00:05:09;7;7;
73517;PMS5003;61766;60.318;25.044;2023-08-06T00:07:35;9;9;
73517;PMS5003;61766;60.318;25.044;2023-08-06T00:10:01;8;8;
73517;PMS5003;61766;60.318;25.044;2023-08-06T00:12:27;7;7;
73517;PMS5003;61766;60.318;25.044;2023-08-06T00:14:53;7;6;
73517;PMS5003;61766;60.318;25.044;2023-08-06T00:17:18;8;8;
73517;PMS5003;61766;60.318;25.044;2023-08-06T00:19:44;9;9;
73517;PMS5003;61766;60.318;25.044;2023-08-06T00:22:10;8;6;
73517;PMS5003;61766;60.318;25.044;2023-08-06T00:24:35;8;8;
73517;PMS5003;61766;60.318;25.044;2023-08-06T00:27:01;8;8;
73517;PMS5003;61766;60.318;25.044;2023-08-06T00:29:27;9;9;
73517;PMS5003;61766;60.318;25.044;2023-08-06T00:31:53;7;7;
73517;PMS5003;61766;60.318;25.044;2023-08-06T00:34:18;10;9;
73517;PMS5003;61766;60.318;25.044;2023-08-06T00:36:44;9;8;
73517;PMS5003;61766;60.318;25.044;2023-08-06T00:39:10;9;9;
73517;PMS5003;61766;60.318;25.044;2023-08-06T00:41:35;12;11;
73517;PMS5003;61766;60.318;25.044;2023-08-06T00:44:01;11;11;
73517;PMS5003;61766;60.318;25.044;2023-08-06T00:46:26;9;9;
73517;PMS5003;61766;60.318;25.044;2023-08-06T00:48:52;10;9;
73517;PMS5003;61766;60.318;25.044;2023-08-06T00:51:18;10;9;
73517;PMS5003;61766;60.318;25.044;2023-08-06T00:53:44;7;7;
73517;PMS5003;61766;60.318;25.044;2023-08-06T00:56:10;9;8;
73517;PMS5003;61766;60.318;25.044;2023-08-06T00:58:35;7;7;
73517;PMS5003;61766;60.318;25.044;2023-08-06T01:01:01;7;7;
73517;PMS5003;61766;60.318;25.044;2023-08-06T01:03:26;9;9;
73517;PMS5003;61766;60.318;25.044;2023-08-06T01:05:52;7;7;
73517;PMS5003;61766;60.318;25.044;2023-08-06T01:08:20;11;8;
73517;PMS5003;61766;60.318;25.044;2023-08-06T01:10:46;9;9;
73517;PMS5003;61766;60.318;25.044;2023-08-06T01:13:12;9;9;
73517;PMS5003;61766;60.318;25.044;2023-08-06T01:15:37;10;9;
73517;PMS5003;61766;60.318;25.044;2023-08-06T01:18:01;7;7;
73517;PMS5003;61766;60.318;25.044;2023-08-06T01:20:28;8;8;
73517;PMS5003;61766;60.318;25.044;2023-08-06T01:22:53;8;8;
73517;PMS5003;61766;60.318;25.044;2023-08-06T01:25:18;8;8;
73517;PMS5003;61766;60.318;25.044;2023-08-06T01:27:45;10;10;
73517;PMS5003;61766;60.318;25.044;2023-08-06T01:30:12;8;7;
73517;PMS5003;61766;60.318;25.044;2023-08-06T01:32:36;9;9;
73517;PMS5003;61766;60.318;25.044;2023-08-06T01:35:02;12;12;
73517;PMS5003;61766;60.318;25.044;2023-08-06T01:37:27;7;6;
73517;PMS5003;61766;60.318;25.044;2023-08-06T01:39:53;7;7;
73517;PMS5003;61766;60.318;25.044;2023-08-06T01:42:18;6;6;
73517;PMS5003;61766;60.318;25.044;2023-08-06T01:44:44;7;7;
73517;PMS5003;61766;60.318;25.044;2023-08-06T01:47:10;7;7;
73517;PMS5003;61766;60.318;25.044;2023-08-06T01:49:36;7;7;
73517;PMS5003;61766;60.318;25.044;2023-08-06T01:52:01;7;7;
73517;PMS5003;61766;60.318;25.044;2023-08-06T01:54:27;9;9;
73517;PMS5003;61766;60.318;25.044;2023-08-06T01:56:53;8;8;
73517;PMS5003;61766;60.318;25.044;2023-08-06T01:59:18;9;9;
73517;PMS5003;61766;60.318;25.044;2023-08-06T02:01:44;8;8;
73517;PMS5003;61766;60.318;25.044;2023-08-06T02:04:10;8;8;
73517;PMS5003;61766;60.318;25.044;2023-08-06T02:06:36;9;9;
73517;PMS5003;61766;60.318;25.044;2023-08-06T02:09:01;8;8;
73517;PMS5003;61766;60.318;25.044;2023-08-06T02:11:27;9;9;
73517;PMS5003;61766;60.318;25.044;2023-08-06T02:13:53;9;9;
73517;PMS5003;61766;60.318;25.044;2023-08-06T02:16:19;8;8;
73517;PMS5003;61766;60.318;25.044;2023-08-06T02:18:44;11;11;
73517;PMS5003;61766;60.318;25.044;2023-08-06T02:21:10;8;8;
73517;PMS5003;61766;60.318;25.044;2023-08-06T02:23:36;6;6;
73517;PMS5003;61766;60.318;25.044;2023-08-06T02:26:02;9;8;
73517;PMS5003;61766;60.318;25.044;2023-08-06T02:28:27;8;8;
73517;PMS5003;61766;60.318;25.044;2023-08-06T02:30:53;8;8;
73517;PMS5003;61766;60.318;25.044;2023-08-06T02:33:19;7;7;
73517;PMS5003;61766;60.318;25.044;2023-08-06T02:35:44;7;7;
73517;PMS5003;61766;60.318;25.044;2023-08-06T02:38:10;7;7;
73517;PMS5003;61766;60.318;25.044;2023-08-06T02:40:36;8;7;
73517;PMS5003;61766;60.318;25.044;2023-08-06T02:43:02;7;7;
73517;PMS5003;61766;60.318;25.044;2023-08-06T02:45:28;8;8;
73517;PMS5003;61766;60.318;25.044;2023-08-06T02:47:53;9;9;
73517;PMS5003;61766;60.318;25.044;2023-08-06T02:50:19;9;9;
73517;PMS5003;61766;60.318;25.044;2023-08-06T02:52:45;7;7;
73517;PMS5003;61766;60.318;25.044;2023-08-06T02:55:11;8;7;
73517;PMS5003;61766;60.318;25.044;2023-08-06T02:57:36;9;8;
73517;PMS5003;61766;60.318;25.044;2023-08-06T03:00:02;8;8;
73517;PMS5003;61766;60.318;25.044;2023-08-06T03:02:28;9;9;
73517;PMS5003;61766;60.318;25.044;2023-08-06T03:04:53;6;6;
73517;PMS5003;61766;60.318;25.044;2023-08-06T03:07:19;8;8;
73517;PMS5003;61766;60.318;25.044;2023-08-06T03:09:45;9;8;
73517;PMS5003;61766;60.318;25.044;2023-08-06T03:12:11;8;8;
73517;PMS5003;61766;60.318;25.044;2023-08-06T03:14:36;10;10;
73517;PMS5003;61766;60.318;25.044;2023-08-06T03:17:02;8;8;
73517;PMS5003;61766;60.318;25.044;2023-08-06T03:19:28;9;9;
73517;PMS5003;61766;60.318;25.044;2023-08-06T03:21:53;8;8;
73517;PMS5003;61766;60.318;25.044;2023-08-06T03:24:19;9;9;
73517;PMS5003;61766;60.318;25.044;2023-08-06T03:26:45;10;9;
73517;PMS5003;61766;60.318;25.044;2023-08-06T03:29:11;8;8;
73517;PMS5003;61766;60.318;25.044;2023-08-06T03:31:36;10;10;
73517;PMS5003;61766;60.318;25.044;2023-08-06T03:34:02;9;9;
73517;PMS5003;61766;60.318;25.044;2023-08-06T03:36:28;10;10;
73517;PMS5003;61766;60.318;25.044;2023-08-06T03:38:54;9;9;
73517;PMS5003;61766;60.318;25.044;2023-08-06T03:41:19;12;11;
73517;PMS5003;61766;60.318;25.044;2023-08-06T03:43:45;10;10;
73517;PMS5003;61766;60.318;25.044;2023-08-06T03:46:11;11;11;
73517;PMS5003;61766;60.318;25.044;2023-08-06T03:48:36;13;13;
73517;PMS5003;61766;60.318;25.044;2023-08-06T03:51:02;12;12;
73517;PMS5003;61766;60.318;25.044;2023-08-06T03:53:28;12;12;
73517;PMS5003;61766;60.318;25.044;2023-08-06T03:55:53;13;13;
73517;PMS5003;61766;60.318;25.044;2023-08-06T03:58:19;12;12;
73517;PMS5003;61766;60.318;25.044;2023-08-06T04:00:45;10;10;
73517;PMS5003;61766;60.318;25.044;2023-08-06T04:03:11;11;11;
73517;PMS5003;61766;60.318;25.044;2023-08-06T04:05:36;11;10;
73517;PMS5003;61766;60.318;25.044;2023-08-06T04:08:02;11;10;
73517;PMS5003;61766;60.318;25.044;2023-08-06T04:10:28;11;11;
73517;PMS5003;61766;60.318;25.044;2023-08-06T04:12:53;15;14;
73517;PMS5003;61766;60.318;25.044;2023-08-06T04:15:19;8;7;
73517;PMS5003;61766;60.318;25.044;2023-08-06T04:17:44;9;9;
73517;PMS5003;61766;60.318;25.044;2023-08-06T04:20:10;9;9;
73517;PMS5003;61766;60.318;25.044;2023-08-06T04:22:35;10;10;
73517;PMS5003;61766;60.318;25.044;2023-08-06T04:25:01;8;8;
73517;PMS5003;61766;60.318;25.044;2023-08-06T04:27:26;10;8;
73517;PMS5003;61766;60.318;25.044;2023-08-06T04:29:52;9;9;
73517;PMS5003;61766;60.318;25.044;2023-08-06T04:32:17;8;8;
73517;PMS5003;61766;60.318;25.044;2023-08-06T04:34:43;8;8;
73517;PMS5003;61766;60.318;25.044;2023-08-06T04:37:09;9;9;
73517;PMS5003;61766;60.318;25.044;2023-08-06T04:39:35;11;10;
73517;PMS5003;61766;60.318;25.044;2023-08-06T04:42:00;10;9;
73517;PMS5003;61766;60.318;25.044;2023-08-06T04:44:26;9;9;
73517;PMS5003;61766;60.318;25.044;2023-08-06T04:46:51;9;8;
73517;PMS5003;61766;60.318;25.044;2023-08-06T04:49:17;7;7;
73517;PMS5003;61766;60.318;25.044;2023-08-06T04:51:43;9;9;
73517;PMS5003;61766;60.318;25.044;2023-08-06T04:54:09;8;8;
73517;PMS5003;61766;60.318;25.044;2023-08-06T04:56:34;9;9;
73517;PMS5003;61766;60.318;25.044;2023-08-06T04:59:00;7;7;
73517;PMS5003;61766;60.318;25.044;2023-08-06T05:01:25;7;7;
73517;PMS5003;61766;60.318;25.044;2023-08-06T05:03:51;12;9;
73517;PMS5003;61766;60.318;25.044;2023-08-06T05:06:17;7;7;
73517;PMS5003;61766;60.318;25.044;2023-08-06T05:08:42;8;7;
73517;PMS5003;61766;60.318;25.044;2023-08-06T05:11:08;8;7;
73517;PMS5003;61766;60.318;25.044;2023-08-06T05:13:33;11;11;
73517;PMS5003;61766;60.318;25.044;2023-08-06T05:15:58;9;8;
73517;PMS5003;61766;60.318;25.044;2023-08-06T05:18:24;8;8;
73517;PMS5003;61766;60.318;25.044;2023-08-06T05:20:50;11;8;
73517;PMS5003;61766;60.318;25.044;2023-08-06T05:23:15;8;7;
73517;PMS5003;61766;60.318;25.044;2023-08-06T05:25:41;7;7;
73517;PMS5003;61766;60.318;25.044;2023-08-06T05:28:07;7;7;
73517;PMS5003;61766;60.318;25.044;2023-08-06T05:30:32;7;7;
73517;PMS5003;61766;60.318;25.044;2023-08-06T05:32:58;8;8;
73517;PMS5003;61766;60.318;25.044;2023-08-06T05:35:24;6;6;
73517;PMS5003;61766;60.318;25.044;2023-08-06T05:37:49;6;6;
73517;PMS5003;61766;60.318;25.044;2023-08-06T05:40:15;8;7;
73517;PMS5003;61766;60.318;25.044;2023-08-06T05:42:41;7;6;
73517;PMS5003;61766;60.318;25.044;2023-08-06T05:45:06;9;8;
73517;PMS5003;61766;60.318;25.044;2023-08-06T05:47:32;10;9;
73517;PMS5003;61766;60.318;25.044;2023-08-06T05:49:57;10;8;
73517;PMS5003;61766;60.318;25.044;2023-08-06T05:52:23;8;8;
73517;PMS5003;61766;60.318;25.044;2023-08-06T05:54:49;9;9;
73517;PMS5003;61766;60.318;25.044;2023-08-06T05:57:14;8;8;
73517;PMS5003;61766;60.318;25.044;2023-08-06T05:59:40;6;6;
73517;PMS5003;61766;60.318;25.044;2023-08-06T06:02:06;8;8;
73517;PMS5003;61766;60.318;25.044;2023-08-06T06:04:32;8;8;
73517;PMS5003;61766;60.318;25.044;2023-08-06T06:06:57;9;8;
73517;PMS5003;61766;60.318;25.044;2023-08-06T06:09:23;9;9;
73517;PMS5003;61766;60.318;25.044;2023-08-06T06:11:49;8;8;
73517;PMS5003;61766;60.318;25.044;2023-08-06T06:14:14;6;6;
73517;PMS5003;61766;60.318;25.044;2023-08-06T06:16:40;6;6;
73517;PMS5003;61766;60.318;25.044;2023-08-06T06:19:06;6;6;
73517;PMS5003;61766;60.318;25.044;2023-08-06T06:21:31;7;7;
73517;PMS5003;61766;60.318;25.044;2023-08-06T06:23:57;10;10;
73517;PMS5003;61766;60.318;25.044;2023-08-06T06:26:23;8;8;
73517;PMS5003;61766;60.318;25.044;2023-08-06T06:28:48;8;7;
73517;PMS5003;61766;60.318;25.044;2023-08-06T06:31:14;7;7;
73517;PMS5003;61766;60.318;25.044;2023-08-06T06:33:40;7;7;
73517;PMS5003;61766;60.318;25.044;2023-08-06T06:36:05;8;7;
73517;PMS5003;61766;60.318;25.044;2023-08-06T06:38:31;11;9;
73517;PMS5003;61766;60.318;25.044;2023-08-06T06:40:56;8;8;
73517;PMS5003;61766;60.318;25.044;2023-08-06T06:43:22;8;7;
73517;PMS5003;61766;60.318;25.044;2023-08-06T06:45:52;8;8;
73517;PMS5003;61766;60.318;25.044;2023-08-06T06:48:13;8;8;
73517;PMS5003;61766;60.318;25.044;2023-08-06T06:50:39;8;8;
73517;PMS5003;61766;60.318;25.044;2023-08-06T06:53:04;7;7;
73517;PMS5003;61766;60.318;25.044;2023-08-06T06:55:30;7;7;
73517;PMS5003;61766;60.318;25.044;2023-08-06T06:57:55;10;10;
73517;PMS5003;61766;60.318;25.044;2023-08-06T07:00:21;5;5;
73517;PMS5003;61766;60.318;25.044;2023-08-06T07:02:47;9;9;
73517;PMS5003;61766;60.318;25.044;2023-08-06T07:05:12;7;7;
73517;PMS5003;61766;60.318;25.044;2023-08-06T07:07:38;6;6;
73517;PMS5003;61766;60.318;25.044;2023-08-06T07:10:04;8;8;
73517;PMS5003;61766;60.318;25.044;2023-08-06T07:12:29;7;6;
73517;PMS5003;61766;60.318;25.044;2023-08-06T07:14:55;6;6;
73517;PMS5003;61766;60.318;25.044;2023-08-06T07:17:20;7;7;
73517;PMS5003;61766;60.318;25.044;2023-08-06T07:19:46;9;7;
73517;PMS5003;61766;60.318;25.044;2023-08-06T07:22:12;6;6;
73517;PMS5003;61766;60.318;25.044;2023-08-06T07:24:37;8;8;
73517;PMS5003;61766;60.318;25.044;2023-08-06T07:27:03;8;8;
73517;PMS5003;61766;60.318;25.044;2023-08-06T07:29:29;9;9;
73517;PMS5003;61766;60.318;25.044;2023-08-06T07:31:54;8;8;
73517;PMS5003;61766;60.318;25.044;2023-08-06T07:34:20;7;7;
73517;PMS5003;61766;60.318;25.044;2023-08-06T07:36:46;10;10;
73517;PMS5003;61766;60.318;25.044;2023-08-06T07:39:11;9;9;
73517;PMS5003;61766;60.318;25.044;2023-08-06T07:41:37;9;8;
73517;PMS5003;61766;60.318;25.044;2023-08-06T07:44:02;6;6;
73517;PMS5003;61766;60.318;25.044;2023-08-06T07:46:28;8;8;
73517;PMS5003;61766;60.318;25.044;2023-08-06T07:48:53;6;6;
73517;PMS5003;61766;60.318;25.044;2023-08-06T07:51:19;8;8;
73517;PMS5003;61766;60.318;25.044;2023-08-06T07:53:44;8;7;
73517;PMS5003;61766;60.318;25.044;2023-08-06T07:56:10;7;7;
73517;PMS5003;61766;60.318;25.044;2023-08-06T07:58:36;7;7;
73517;PMS5003;61766;60.318;25.044;2023-08-06T08:01:01;11;10;
73517;PMS5003;61766;60.318;25.044;2023-08-06T08:03:27;7;7;
73517;PMS5003;61766;60.318;25.044;2023-08-06T08:05:54;10;9;
73517;PMS5003;61766;60.318;25.044;2023-08-06T08:08:18;7;6;
73517;PMS5003;61766;60.318;25.044;2023-08-06T08:10:44;8;8;
73517;PMS5003;61766;60.318;25.044;2023-08-06T08:13:09;11;11;
73517;PMS5003;61766;60.318;25.044;2023-08-06T08:15:35;10;9;
73517;PMS5003;61766;60.318;25.044;2023-08-06T08:18:00;9;9;
73517;PMS5003;61766;60.318;25.044;2023-08-06T08:20:26;10;10;
73517;PMS5003;61766;60.318;25.044;2023-08-06T08:22:51;7;7;
73517;PMS5003;61766;60.318;25.044;2023-08-06T08:25:17;9;9;
73517;PMS5003;61766;60.318;25.044;2023-08-06T08:27:43;7;7;
73517;PMS5003;61766;60.318;25.044;2023-08-06T08:30:08;6;6;
73517;PMS5003;61766;60.318;25.044;2023-08-06T08:32:34;9;8;
73517;PMS5003;61766;60.318;25.044;2023-08-06T08:34:59;7;7;
73517;PMS5003;61766;60.318;25.044;2023-08-06T08:37:25;8;8;
73517;PMS5003;61766;60.318;25.044;2023-08-06T08:39:51;9;9;
73517;PMS5003;61766;60.318;25.044;2023-08-06T08:42:16;8;8;
73517;PMS5003;61766;60.318;25.044;2023-08-06T08:44:42;8;7;
73517;PMS5003;61766;60.318;25.044;2023-08-06T08:47:07;10;9;
73517;PMS5003;61766;60.318;25.044;2023-08-06T08:49:33;9;9;
73517;PMS5003;61766;60.318;25.044;2023-08-06T08:51:58;10;10;
73517;PMS5003;61766;60.318;25.044;2023-08-06T08:54:24;10;10;
73517;PMS5003;61766;60.318;25.044;2023-08-06T08:56:49;13;12;
73517;PMS5003;61766;60.318;25.044;2023-08-06T08:59:15;10;9;
73517;PMS5003;61766;60.318;25.044;2023-08-06T09:01:41;9;9;
73517;PMS5003;61766;60.318;25.044;2023-08-06T09:04:06;11;11;
73517;PMS5003;61766;60.318;25.044;2023-08-06T09:06:32;9;9;
73517;PMS5003;61766;60.318;25.044;2023-08-06T09:09:00;12;12;
73517;PMS5003;61766;60.318;25.044;2023-08-06T09:11:23;13;12;
73517;PMS5003;61766;60.318;25.044;2023-08-06T09:13:49;10;10;
73517;PMS5003;61766;60.318;25.044;2023-08-06T09:16:14;12;12;
73517;PMS5003;61766;60.318;25.044;2023-08-06T09:18:40;10;10;
73517;PMS5003;61766;60.318;25.044;2023-08-06T09:21:05;10;9;
73517;PMS5003;61766;60.318;25.044;2023-08-06T09:23:31;9;9;
73517;PMS5003;61766;60.318;25.044;2023-08-06T09:25:56;13;12;
73517;PMS5003;61766;60.318;25.044;2023-08-06T09:28:22;12;12;
73517;PMS5003;61766;60.318;25.044;2023-08-06T09:30:47;11;11;
73517;PMS5003;61766;60.318;25.044;2023-08-06T09:33:14;18;16;
73517;PMS5003;61766;60.318;25.044;2023-08-06T09:35:39;14;14;
73517;PMS5003;61766;60.318;25.044;2023-08-06T09:38:06;14;14;
73517;PMS5003;61766;60.318;25.044;2023-08-06T09:40:30;12;12;
73517;PMS5003;61766;60.318;25.044;2023-08-06T09:42:55;12;12;
73517;PMS5003;61766;60.318;25.044;2023-08-06T09:45:21;10;10;
73517;PMS5003;61766;60.318;25.044;2023-08-06T09:47:46;11;11;
73517;PMS5003;61766;60.318;25.044;2023-08-06T09:50:14;11;11;
73517;PMS5003;61766;60.318;25.044;2023-08-06T09:52:37;13;13;
73517;PMS5003;61766;60.318;25.044;2023-08-06T09:55:03;12;12;
73517;PMS5003;61766;60.318;25.044;2023-08-06T09:57:29;12;12;
73517;PMS5003;61766;60.318;25.044;2023-08-06T09:59:54;13;13;
73517;PMS5003;61766;60.318;25.044;2023-08-06T10:02:20;14;14;
73517;PMS5003;61766;60.318;25.044;2023-08-06T10:04:46;15;15;
73517;PMS5003;61766;60.318;25.044;2023-08-06T10:07:11;12;12;
73517;PMS5003;61766;60.318;25.044;2023-08-06T10:09:37;14;14;
73517;PMS5003;61766;60.318;25.044;2023-08-06T10:12:03;14;13;
73517;PMS5003;61766;60.318;25.044;2023-08-06T10:14:29;12;11;
73517;PMS5003;61766;60.318;25.044;2023-08-06T10:16:54;11;11;
73517;PMS5003;61766;60.318;25.044;2023-08-06T10:19:19;12;11;
73517;PMS5003;61766;60.318;25.044;2023-08-06T10:24:12;10;9;
73517;PMS5003;61766;60.318;25.044;2023-08-06T10:26:36;12;12;
73517;PMS5003;61766;60.318;25.044;2023-08-06T10:29:02;10;10;
73517;PMS5003;61766;60.318;25.044;2023-08-06T10:33:53;13;13;
73517;PMS5003;61766;60.318;25.044;2023-08-06T10:36:18;11;11;
73517;PMS5003;61766;60.318;25.044;2023-08-06T10:38:44;14;13;
73517;PMS5003;61766;60.318;25.044;2023-08-06T10:41:09;10;10;
73517;PMS5003;61766;60.318;25.044;2023-08-06T10:43:36;12;12;
73517;PMS5003;61766;60.318;25.044;2023-08-06T10:46:02;10;9;
73517;PMS5003;61766;60.318;25.044;2023-08-06T10:48:30;10;10;
73517;PMS5003;61766;60.318;25.044;2023-08-06T10:50:52;11;10;
73517;PMS5003;61766;60.318;25.044;2023-08-06T10:53:17;11;11;
73517;PMS5003;61766;60.318;25.044;2023-08-06T10:55:43;13;12;
73517;PMS5003;61766;60.318;25.044;2023-08-06T10:58:09;10;9;
73517;PMS5003;61766;60.318;25.044;2023-08-06T11:00:34;11;10;
73517;PMS5003;61766;60.318;25.044;2023-08-06T11:03:00;9;9;
73517;PMS5003;61766;60.318;25.044;2023-08-06T11:05:26;9;9;
73517;PMS5003;61766;60.318;25.044;2023-08-06T11:07:51;8;8;
73517;PMS5003;61766;60.318;25.044;2023-08-06T11:10:17;8;8;
73517;PMS5003;61766;60.318;25.044;2023-08-06T11:12:43;8;8;
73517;PMS5003;61766;60.318;25.044;2023-08-06T11:15:09;9;9;
73517;PMS5003;61766;60.318;25.044;2023-08-06T11:17:34;7;7;
73517;PMS5003;61766;60.318;25.044;2023-08-06T11:20:00;8;7;
73517;PMS5003;61766;60.318;25.044;2023-08-06T11:22:26;9;9;
73517;PMS5003;61766;60.318;25.044;2023-08-06T11:24:51;7;7;
73517;PMS5003;61766;60.318;25.044;2023-08-06T11:27:16;6;6;
73517;PMS5003;61766;60.318;25.044;2023-08-06T11:29:42;7;7;
73517;PMS5003;61766;60.318;25.044;2023-08-06T11:32:08;7;7;
73517;PMS5003;61766;60.318;25.044;2023-08-06T11:34:33;8;8;
73517;PMS5003;61766;60.318;25.044;2023-08-06T11:36:59;9;9;
73517;PMS5003;61766;60.318;25.044;2023-08-06T11:39:25;8;8;
73517;PMS5003;61766;60.318;25.044;2023-08-06T11:41:50;8;8;
73517;PMS5003;61766;60.318;25.044;2023-08-06T11:44:17;8;8;
73517;PMS5003;61766;60.318;25.044;2023-08-06T11:46:50;7;7;
73517;PMS5003;61766;60.318;25.044;2023-08-06T11:49:07;7;7;
73517;PMS5003;61766;60.318;25.044;2023-08-06T11:51:33;8;8;
73517;PMS5003;61766;60.318;25.044;2023-08-06T11:53:58;7;7;
73517;PMS5003;61766;60.318;25.044;2023-08-06T11:56:24;7;7;
73517;PMS5003;61766;60.318;25.044;2023-08-06T11:58:50;8;8;
73517;PMS5003;61766;60.318;25.044;2023-08-06T12:01:15;7;7;
73517;PMS5003;61766;60.318;25.044;2023-08-06T12:03:41;7;7;
73517;PMS5003;61766;60.318;25.044;2023-08-06T12:06:07;7;7;
73517;PMS5003;61766;60.318;25.044;2023-08-06T12:08:32;7;7;
73517;PMS5003;61766;60.318;25.044;2023-08-06T12:10:58;6;6;
73517;PMS5003;61766;60.318;25.044;2023-08-06T12:13:23;7;7;
73517;PMS5003;61766;60.318;25.044;2023-08-06T12:15:49;6;6;
73517;PMS5003;61766;60.318;25.044;2023-08-06T12:18:14;5;5;
73517;PMS5003;61766;60.318;25.044;2023-08-06T12:20:40;6;6;
73517;PMS5003;61766;60.318;25.044;2023-08-06T12:23:06;5;5;
73517;PMS5003;61766;60.318;25.044;2023-08-06T12:25:31;6;6;
73517;PMS5003;61766;60.318;25.044;2023-08-06T12:27:57;5;5;
73517;PMS5003;61766;60.318;25.044;2023-08-06T12:30:23;5;5;
73517;PMS5003;61766;60.318;25.044;2023-08-06T12:32:48;7;7;
73517;PMS5003;61766;60.318;25.044;2023-08-06T12:35:14;6;6;
73517;PMS5003;61766;60.318;25.044;2023-08-06T12:37:39;6;6;
73517;PMS5003;61766;60.318;25.044;2023-08-06T12:40:06;6;6;
73517;PMS5003;61766;60.318;25.044;2023-08-06T12:42:31;6;6;
73517;PMS5003;61766;60.318;25.044;2023-08-06T12:44:56;6;6;
73517;PMS5003;61766;60.318;25.044;2023-08-06T12:47:22;6;6;
73517;PMS5003;61766;60.318;25.044;2023-08-06T12:49:48;7;7;
73517;PMS5003;61766;60.318;25.044;2023-08-06T12:52:13;6;6;
73517;PMS5003;61766;60.318;25.044;2023-08-06T12:54:39;7;7;
73517;PMS5003;61766;60.318;25.044;2023-08-06T12:57:05;5;5;
73517;PMS5003;61766;60.318;25.044;2023-08-06T12:59:30;7;7;
73517;PMS5003;61766;60.318;25.044;2023-08-06T13:01:56;7;7;
73517;PMS5003;61766;60.318;25.044;2023-08-06T13:04:21;5;5;
73517;PMS5003;61766;60.318;25.044;2023-08-06T13:06:47;6;6;
73517;PMS5003;61766;60.318;25.044;2023-08-06T13:09:13;6;5;
73517;PMS5003;61766;60.318;25.044;2023-08-06T13:11:39;6;6;
73517;PMS5003;61766;60.318;25.044;2023-08-06T13:14:04;8;7;
73517;PMS5003;61766;60.318;25.044;2023-08-06T13:16:30;6;6;
73517;PMS5003;61766;60.318;25.044;2023-08-06T13:18:55;7;7;
73517;PMS5003;61766;60.318;25.044;2023-08-06T13:21:21;7;7;
73517;PMS5003;61766;60.318;25.044;2023-08-06T13:23:46;6;6;
73517;PMS5003;61766;60.318;25.044;2023-08-06T13:26:12;7;7;
73517;PMS5003;61766;60.318;25.044;2023-08-06T13:28:38;6;6;
73517;PMS5003;61766;60.318;25.044;2023-08-06T13:31:03;6;5;
73517;PMS5003;61766;60.318;25.044;2023-08-06T13:33:29;7;7;
73517;PMS5003;61766;60.318;25.044;2023-08-06T13:35:54;5;5;
73517;PMS5003;61766;60.318;25.044;2023-08-06T13:38:20;7;7;
73517;PMS5003;61766;60.318;25.044;2023-08-06T13:40:46;7;7;
73517;PMS5003;61766;60.318;25.044;2023-08-06T13:43:11;7;7;
73517;PMS5003;61766;60.318;25.044;2023-08-06T13:45:37;7;7;
73517;PMS5003;61766;60.318;25.044;2023-08-06T13:48:03;7;7;
73517;PMS5003;61766;60.318;25.044;2023-08-06T13:50:28;8;8;
73517;PMS5003;61766;60.318;25.044;2023-08-06T13:52:54;8;8;
73517;PMS5003;61766;60.318;25.044;2023-08-06T13:55:20;7;7;
73517;PMS5003;61766;60.318;25.044;2023-08-06T13:57:45;8;8;
73517;PMS5003;61766;60.318;25.044;2023-08-06T14:00:11;9;9;
73517;PMS5003;61766;60.318;25.044;2023-08-06T14:02:36;6;6;
73517;PMS5003;61766;60.318;25.044;2023-08-06T14:05:02;9;9;
73517;PMS5003;61766;60.318;25.044;2023-08-06T14:07:28;7;7;
73517;PMS5003;61766;60.318;25.044;2023-08-06T14:09:53;8;7;
73517;PMS5003;61766;60.318;25.044;2023-08-06T14:12:19;11;10;
73517;PMS5003;61766;60.318;25.044;2023-08-06T14:14:44;11;11;
73517;PMS5003;61766;60.318;25.044;2023-08-06T14:17:10;9;9;
73517;PMS5003;61766;60.318;25.044;2023-08-06T14:19:35;9;8;
73517;PMS5003;61766;60.318;25.044;2023-08-06T14:22:01;10;10;
73517;PMS5003;61766;60.318;25.044;2023-08-06T14:24:27;9;9;
73517;PMS5003;61766;60.318;25.044;2023-08-06T14:26:52;11;11;
73517;PMS5003;61766;60.318;25.044;2023-08-06T14:29:18;12;12;
73517;PMS5003;61766;60.318;25.044;2023-08-06T14:31:43;11;11;
73517;PMS5003;61766;60.318;25.044;2023-08-06T14:34:09;12;12;
73517;PMS5003;61766;60.318;25.044;2023-08-06T14:36:35;10;10;
73517;PMS5003;61766;60.318;25.044;2023-08-06T14:39:00;11;11;
73517;PMS5003;61766;60.318;25.044;2023-08-06T14:41:26;10;9;
73517;PMS5003;61766;60.318;25.044;2023-08-06T14:43:52;13;12;
73517;PMS5003;61766;60.318;25.044;2023-08-06T14:46:17;9;9;
73517;PMS5003;61766;60.318;25.044;2023-08-06T14:48:43;12;12;
73517;PMS5003;61766;60.318;25.044;2023-08-06T14:51:08;9;9;
73517;PMS5003;61766;60.318;25.044;2023-08-06T14:53:34;9;9;
73517;PMS5003;61766;60.318;25.044;2023-08-06T14:55:59;11;11;
73517;PMS5003;61766;60.318;25.044;2023-08-06T14:58:25;10;10;
73517;PMS5003;61766;60.318;25.044;2023-08-06T15:00:50;12;12;
73517;PMS5003;61766;60.318;25.044;2023-08-06T15:03:16;12;12;
73517;PMS5003;61766;60.318;25.044;2023-08-06T15:05:43;10;10;
73517;PMS5003;61766;60.318;25.044;2023-08-06T15:08:07;8;8;
73517;PMS5003;61766;60.318;25.044;2023-08-06T15:10:33;10;10;
73517;PMS5003;61766;60.318;25.044;2023-08-06T15:12:58;10;10;
73517;PMS5003;61766;60.318;25.044;2023-08-06T15:15:24;11;11;
73517;PMS5003;61766;60.318;25.044;2023-08-06T15:17:49;10;10;
73517;PMS5003;61766;60.318;25.044;2023-08-06T15:20:15;11;11;
73517;PMS5003;61766;60.318;25.044;2023-08-06T15:22:40;11;11;
73517;PMS5003;61766;60.318;25.044;2023-08-06T15:25:06;12;12;
73517;PMS5003;61766;60.318;25.044;2023-08-06T15:27:31;13;13;
73517;PMS5003;61766;60.318;25.044;2023-08-06T15:29:57;11;11;
73517;PMS5003;61766;60.318;25.044;2023-08-06T15:32:22;9;9;
73517;PMS5003;61766;60.318;25.044;2023-08-06T15:34:48;9;9;
73517;PMS5003;61766;60.318;25.044;2023-08-06T15:37:14;9;9;
73517;PMS5003;61766;60.318;25.044;2023-08-06T15:39:39;11;11;
73517;PMS5003;61766;60.318;25.044;2023-08-06T15:42:05;12;11;
73517;PMS5003;61766;60.318;25.044;2023-08-06T15:44:30;10;9;
73517;PMS5003;61766;60.318;25.044;2023-08-06T15:46:56;11;11;
73517;PMS5003;61766;60.318;25.044;2023-08-06T15:49:22;11;11;
73517;PMS5003;61766;60.318;25.044;2023-08-06T15:51:47;11;11;
73517;PMS5003;61766;60.318;25.044;2023-08-06T15:54:13;17;17;
73517;PMS5003;61766;60.318;25.044;2023-08-06T15:56:39;12;12;
73517;PMS5003;61766;60.318;25.044;2023-08-06T16:01:30;14;14;
73517;PMS5003;61766;60.318;25.044;2023-08-06T16:03:55;12;12;
73517;PMS5003;61766;60.318;25.044;2023-08-06T16:06:21;12;12;
73517;PMS5003;61766;60.318;25.044;2023-08-06T16:08:46;13;13;
73517;PMS5003;61766;60.318;25.044;2023-08-06T16:11:12;11;11;
73517;PMS5003;61766;60.318;25.044;2023-08-06T16:13:38;12;12;
73517;PMS5003;61766;60.318;25.044;2023-08-06T16:16:03;13;13;
73517;PMS5003;61766;60.318;25.044;2023-08-06T16:18:29;15;15;